Round Potrero (157, 6923) Station Data

Red Flag Warning: No
Fire Weather Zone: 250
SDGE Region: Mountain Empire
Lat/Lon: 32.648/-116.631

Observations

Time Wind Speed/Gust Temp(F) RH Fuel Moist Fuel Temp(F) Dewpt(F) Tmax(F) Tmin(F) Accum Precip 10-min Precip SL Press(mb)
5/24 8:20am 81 4 G 6 68° 31% - - 36° 72.7° 63.4° - - -
5/24 8:10am 87 4 G 5 67° 32% - - 36° 72.7° 63.4° - - -
5/24 8:00am 88 3 G 5 66° 37% - - 39° 72.7° 63.4° - - -
5/24 7:50am 88 2 G 3 66° 40% - - 41° 72.7° 63.4° - - -
5/24 7:40am 91 2 G 4 66° 42% - - 43° 72.7° 63.4° - - -
5/24 7:30am 81 1 G 3 67° 42% - - 43° 72.7° 63.4° - - -
5/24 7:10am 54 3 G 6 65° 40% - - 40° 72.7° 63.6° - - -
5/24 7:00am 251 3 G 7 65° 41% - - 40° 72.7° 63.6° - - -
5/24 6:50am 239 6 G 10 64° 38% - - 38° 72.7° 63.6° - - -
5/24 6:40am 246 6 G 9 66° 31% - - 34° 72.7° 63.6° - - -
5/24 6:30am 240 4 G 11 69° 22% - - 28° 72.7° 64.1° - - -
5/24 6:10am 105 1 G 2 71° 18% - - 26° 72.5° 64.1° - - -
5/24 6:00am 100 2 G 3 68° 26% - - 31° 71.2° 64.1° - - -
5/24 5:50am 86 1 G 2 69° 24% - - 30° 71.2° 64.1° - - -
5/24 5:40am 98 2 G 3 67° 29% - - 34° 71.2° 64.1° - - -
5/24 5:30am 57 2 G 3 67° 32% - - 36° 71.2° 64.1° - - -
5/24 5:20am 56 2 G 3 68° 31% - - 36° 71.2° 64.1° - - -
5/24 5:10am 86 2 G 3 66° 37% - - 39° 71.2° 64.1° - - -
5/24 5:00am 79 3 G 4 64° 44% - - 42° 71.2° 64.1° - - -
5/24 4:50am 79 4 G 4 65° 41% - - 40° 71.2° 64.1° - - -
5/24 4:40am 73 3 G 3 65° 38% - - 39° 71.2° 64.1° - - -
5/24 4:30am 77 2 G 2 65° 39% - - 40° 71.2° 64.1° - - -
5/24 4:20am 87 2 G 2 66° 38% - - 40° 71.2° 64.1° - - -
5/24 4:10am 103 2 G 3 67° 38% - - 41° 71.2° 64.1° - - -
5/24 4:00am 89 1 G 2 66° 40% - - 41° 71.2° 64.1° - - -
5/24 3:50am 117 0 G 1 65° 40% - - 40° 71.2° 64.1° - - -
5/24 3:40am 93 0 G 1 65° 47% - - 44° 71.2° 64.1° - - -
5/24 3:30am 90 2 G 3 65° 48% - - 45° 71.2° 64.1° - - -
5/24 3:20am 176 2 G 4 67° 39% - - 42° 71.2° 65.3° - - -
5/24 3:10am 233 4 G 5 69° 35% - - 41° 71.2° 65.6° - - -
5/24 3:00am 228 4 G 5 70° 34% - - 40° 71.2° 65.6° - - -
5/24 2:50am 225 3 G 6 68° 39% - - 42° 71.2° 65.6° - - -
5/24 2:40am 260 1 G 2 67° 42% - - 43° 71.2° 65.6° - - -
5/24 2:30am 135 0 G 1 66° 48% - - 46° 71.2° 65.6° - - -
5/24 2:20am 99 1 G 2 66° 48% - - 46° 71.2° 65.6° - - -
5/24 2:10am 87 2 G 2 66° 47% - - 45° 71.2° 65.6° - - -
5/24 2:00am 85 1 G 2 67° 44% - - 44° 71.2° 65.8° - - -
5/24 1:50am 0 0 G 0 69° 37% - - 42° 71.2° 65.8° - - -
5/24 1:40am 277 1 G 3 71° 34% - - 41° 71.2° 65.8° - - -
5/24 1:30am 266 2 G 3 71° 38% - - 44° 71° 65.8° - - -
5/24 1:20am 179 1 G 2 70° 39% - - 44° 70.5° 65.8° - - -
5/24 1:10am 137 2 G 4 70° 40% - - 45° 70.2° 65.8° - - -
5/24 1:00am 102 3 G 4 67° 48% - - 47° 68.7° 65.8° - - -
5/24 12:50am 86 3 G 4 67° 51% - - 48° 67.4° 65.8° - - -
5/24 12:40am 97 3 G 4 67° 51% - - 48° 67.4° 65.8° - - -
5/24 12:30am 82 1 G 2 66° 53% - - 48° 67.4° 65.8° - - -
5/24 12:20am 87 2 G 2 66° 52% - - 48° 67.4° 65.8° - - -
5/24 12:10am 98 2 G 2 67° 51% - - 48° 67.4° 66.6° - - -
5/24 12:00am 110 2 G 2 68° 49% - - 48° 89.9° 66° - - -
5/23 11:50pm 234 2 G 3 69° 47% - - 48° 89.9° 66° - - -
5/23 11:40pm 226 3 G 4 69° 48% - - 48° 89.9° 66° - - -
5/23 11:30pm 244 3 G 4 69° 47% - - 48° 89.9° 66° - - -
5/23 11:20pm 239 2 G 3 70° 46% - - 48° 89.9° 66° - - -
5/23 11:10pm 264 1 G 2 69° 48% - - 49° 89.9° 66° - - -
5/23 11:00pm 78 0 G 1 68° 49% - - 48° 89.9° 66° - - -
5/23 10:50pm 107 2 G 2 70° 47% - - 48° 89.9° 66° - - -
5/23 10:40pm 137 1 G 2 70° 47% - - 48° 89.9° 66° - - -
5/23 10:30pm 99 0 G 1 70° 46% - - 48° 89.9° 66° - - -
5/23 10:20pm 161 1 G 2 70° 46% - - 49° 89.9° 66° - - -
5/23 10:10pm 125 1 G 3 68° 51% - - 50° 89.9° 66° - - -
5/23 10:00pm 89 3 G 4 69° 51% - - 50° 89.9° 66° - - -
5/23 9:50pm 74 1 G 2 69° 51% - - 50° 89.9° 66° - - -
5/23 9:40pm 92 1 G 2 69° 51% - - 50° 89.9° 66° - - -
5/23 9:30pm 87 1 G 2 69° 51% - - 50° 89.9° 66° - - -
5/23 9:20pm 122 1 G 2 69° 50% - - 50° 89.9° 66° - - -
5/23 9:10pm 211 2 G 4 70° 50% - - 50° 89.9° 66° - - -
5/23 9:00pm 253 2 G 5 69° 50% - - 50° 89.9° 66° - - -
5/23 8:50pm 242 4 G 5 71° 47% - - 50° 89.9° 66° - - -
5/23 8:40pm 239 6 G 7 72° 47% - - 50° 89.9° 66° - - -
5/23 8:30pm 258 7 G 9 72° 45% - - 50° 89.9° 66° - - -
5/23 8:20pm 271 7 G 9 73° 42% - - 49° 89.9° 66° - - -
5/23 8:10pm 243 6 G 12 74° 40% - - 48° 89.9° 66° - - -
5/23 8:00pm 201 2 G 5 74° 40% - - 48° 89.9° 66° - - -
5/23 7:50pm 201 1 G 4 74° 41% - - 49° 89.9° 66° - - -
5/23 7:40pm 243 1 G 3 74° 42% - - 50° 89.9° 66° - - -
5/23 7:30pm 210 2 G 3 74° 41% - - 49° 89.9° 66° - - -
5/23 7:20pm 224 3 G 5 74° 42% - - 50° 89.9° 66° - - -
5/23 7:10pm 225 5 G 7 74° 41% - - 50° 89.9° 66° - - -
5/23 7:00pm 225 5 G 8 75° 40% - - 49° 89.9° 66° - - -
5/23 6:50pm 226 6 G 9 76° 38% - - 49° 89.9° 66° - - -
5/23 6:40pm 232 6 G 10 77° 37% - - 48° 89.9° 66° - - -
5/23 6:30pm 225 6 G 10 78° 35% - - 48° 89.9° 66° - - -
5/23 6:20pm 228 7 G 10 79° 33% - - 47° 89.9° 66° - - -
5/23 6:10pm 228 6 G 10 81° 31% - - 47° 89.9° 66° - - -
5/23 6:00pm 252 6 G 13 82° 27% - - 45° 89.9° 66° - - -
5/23 5:50pm 263 8 G 12 82° 25% - - 43° 89.9° 66° - - -
5/23 5:40pm 265 7 G 13 83° 23% - - 41° 89.9° 66° - - -
5/23 5:30pm 228 6 G 14 83° 22% - - 40° 89.9° 66° - - -
5/23 5:20pm 265 8 G 17 83° 23% - - 41° 89.9° 66° - - -
5/23 5:10pm 261 9 G 17 82° 23% - - 41° 89.9° 66° - - -
5/23 5:00pm 262 7 G 14 83° 22% - - 40° 89.9° 66° - - -
5/23 4:50pm 254 8 G 16 82° 22% - - 39° 89.9° 66° - - -
5/23 4:40pm 266 10 G 16 82° 20% - - 38° 89.9° 66° - - -
5/23 4:30pm 262 10 G 19 82° 20% - - 38° 89.9° 66° - - -
5/23 4:20pm 236 8 G 18 82° 23% - - 41° 89.9° 66° - - -
5/23 4:10pm 246 9 G 18 82° 25% - - 43° 89.9° 66° - - -
5/23 4:00pm 264 10 G 19 82° 29% - - 47° 89.9° 66° - - -
5/23 3:50pm 271 11 G 18 82° 29% - - 47° 89.9° 66° - - -
5/23 3:40pm 266 9 G 16 82° 29% - - 46° 89.9° 66° - - -
5/23 3:30pm 274 10 G 15 81° 31% - - 47° 89.9° 66° - - -
5/23 3:20pm 269 12 G 19 82° 30% - - 47° 89.9° 66° - - -
5/23 3:10pm 271 14 G 18 81° 33% - - 49° 89.9° 66° - - -
5/23 3:00pm 259 11 G 17 82° 33% - - 50° 89.9° 66° - - -
5/23 2:50pm 239 9 G 15 82° 33% - - 50° 89.9° 66° - - -
5/23 2:40pm 262 11 G 16 83° 31% - - 49° 89.9° 66° - - -
5/23 2:30pm 269 12 G 17 83° 30% - - 48° 89.9° 66° - - -
5/23 2:20pm 250 9 G 14 83° 31% - - 49° 89.9° 66° - - -
5/23 2:10pm 262 9 G 15 83° 31% - - 49° 89.9° 66° - - -
5/23 2:00pm 245 9 G 15 83° 31% - - 49° 89.9° 66° - - -
5/23 1:50pm 247 9 G 14 84° 30% - - 49° 89.9° 66° - - -
5/23 1:40pm 266 11 G 17 84° 28% - - 47° 89.9° 66° - - -
5/23 1:30pm 266 9 G 15 85° 26% - - 46° 89.9° 66° - - -
5/23 1:20pm 269 10 G 14 86° 25% - - 46° 89.9° 66° - - -
5/23 1:10pm 238 7 G 12 86° 24% - - 45° 89.9° 66° - - -
5/23 1:00pm 245 9 G 15 86° 23% - - 45° 89.9° 66° - - -
5/23 12:50pm 252 10 G 17 87° 21% - - 42° 89.9° 66° - - -
5/23 12:40pm 248 9 G 15 88° 20% - - 41° 89.9° 66° - - -
5/23 12:30pm 261 9 G 20 89° 18% - - 40° 89.9° 66° - - -
5/23 12:20pm 255 8 G 14 89° 17% - - 39° 89.6° 66° - - -
5/23 12:10pm 228 7 G 12 89° 16% - - 37° 89.5° 66° - - -
5/23 12:00pm 264 10 G 15 89° 15% - - 36° 89.2° 66° - - -
5/23 11:50am 255 7 G 12 88° 14% - - 32° 89.2° 66° - - -
5/23 11:40am 271 7 G 12 88° 15% - - 34° 88.5° 66° - - -
5/23 11:30am 267 7 G 11 87° 15% - - 33° 87.6° 66° - - -
5/23 11:20am 270 8 G 12 86° 15% - - 33° 87.3° 66° - - -
5/23 11:10am 271 8 G 12 86° 15% - - 34° 87.3° 66° - - -
5/23 11:00am 272 7 G 11 87° 16% - - 34° 87.3° 66° - - -
5/23 10:50am 275 6 G 10 87° 16% - - 36° 87.3° 66° - - -
5/23 10:40am 282 5 G 11 87° 17% - - 36° 87.1° 66° - - -
5/23 10:30am 287 5 G 8 86° 17% - - 36° 86.7° 66° - - -
5/23 10:20am 298 3 G 7 86° 17% - - 37° 86.7° 66° - - -
5/23 10:10am 279 3 G 6 85° 18% - - 37° 85.3° 66° - - -
5/23 10:00am 307 2 G 6 84° 20% - - 38° 84.5° 66° - - -
5/23 9:50am 16 2 G 4 83° 20% - - 38° 84.4° 66° - - -
5/23 9:40am 323 2 G 5 82° 21% - - 38° 82.5° 66° - - -
5/23 9:30am 285 3 G 5 81° 21% - - 37° 81.4° 66° - - -
5/23 9:20am 290 3 G 5 80° 21% - - 37° 81.4° 66° - - -
5/23 9:10am 278 2 G 5 81° 19% - - 34° 81.4° 66° - - -
5/23 9:00am 272 2 G 4 80° 18% - - 33° 81.4° 66° - - -
5/23 8:50am 320 1 G 4 81° 17% - - 31° 81.4° 66° - - -
5/23 8:40am 336 1 G 2 80° 16% - - 30° 81° 66° - - -
5/23 8:30am 98 1 G 2 80° 15% - - 28° 80.5° 66° - - -
5/23 8:20am 79 2 G 4 79° 21% - - 35° 79.5° 66° - - -
5/23 8:10am 80 2 G 3 78° 23% - - 37° 78.6° 66° - - -
5/23 8:00am 54 1 G 2 77° 22% - - 36° 78.5° 66° - - -
5/23 7:50am 85 1 G 2 75° 24% - - 36° 76.2° 66° - - -
5/23 7:40am 12 2 G 3 75° 21% - - 32° 76.2° 66° - - -
5/23 7:30am 256 3 G 4 73° 20% - - 29° 76.2° 66° - - -
5/23 7:20am 241 3 G 5 74° 19% - - 28° 76.2° 66° - - -
5/23 7:10am 242 3 G 5 75° 15% - - 25° 76.2° 66° - - -
5/23 7:00am 104 1 G 2 74° 16% - - 26° 75.7° 66° - - -
5/23 6:50am 104 2 G 3 72° 19% - - 27° 73.2° 66° - - -
5/23 6:40am 88 2 G 3 69° 21% - - 28° 73.2° 66° - - -
5/23 6:30am 81 3 G 3 70° 21% - - 28° 73.2° 66° - - -
5/23 6:20am 101 2 G 2 70° 19% - - 27° 73.2° 66° - - -
5/23 6:10am 102 1 G 1 69° 20% - - 27° 73.2° 66° - - -
5/23 6:00am 100 2 G 2 67° 22% - - 27° 73.2° 66° - - -